Time;durP1;ratioP1;P1;durP2;ratioP2;P2;SDS_P1;SDS_P2;PMS_P1;PMS_P2;Temp;Humidity;BMP_temperature;BMP_pressure;BME280_temperature;BME280_humidity;BME280_pressure;Samples;Min_cycle;Max_cycle;Signal;HPM_P1;HPM_P2
2022/01/11 00:00:27;;;;;;;7.35;3.25;;;;;;;-5.90;50.48;99999.91;4896888;29;20052;-80
2022/01/11 00:03:12;;;;;;;5.93;2.75;;;;;;;-5.91;50.20;99995.56;4881379;29;20064;-80
2022/01/11 00:06:02;;;;;;;5.47;3.10;;;;;;;-5.88;50.24;99979.94;4881424;29;20052;-79
2022/01/11 00:08:32;;;;;;;;;;;;;;;-5.81;50.24;99988.59;4897206;29;20072;-79
2022/01/11 00:11:05;;;;;;;8.32;3.28;;;;;;;-5.91;50.36;99973.88;4881842;29;19919;-80
2022/01/11 00:13:33;;;;;;;5.07;3.17;;;;;;;-5.84;50.33;99979.94;4898256;29;20535;-80
2022/01/11 00:15:59;;;;;;;5.28;3.00;;;;;;;-5.88;50.38;99979.06;4881144;29;20131;-80
2022/01/11 00:18:25;;;;;;;7.82;3.40;;;;;;;-5.92;50.05;99980.00;4896699;29;20056;-82
2022/01/11 00:20:51;;;;;;;6.57;3.20;;;;;;;-5.94;50.12;99981.72;4865632;29;20500;-79
2022/01/11 00:25:46;;;;;;;8.95;3.15;;;;;;;-5.96;50.37;99981.72;4912170;29;20127;-80
2022/01/11 00:28:14;;;;;;;4.28;3.00;;;;;;;-5.91;50.41;99974.72;4897052;29;20408;-80
2022/01/11 00:30:51;;;;;;;5.25;3.25;;;;;;;-5.74;50.22;99976.44;4851360;29;20424;-79
2022/01/11 00:33:26;;;;;;;6.35;3.60;;;;;;;-5.76;49.95;99967.75;4896541;29;20051;-79
2022/01/11 00:36:03;;;;;;;6.88;2.97;;;;;;;-5.76;49.72;99968.59;4896472;29;20056;-78
2022/01/11 00:38:34;;;;;;;9.05;3.63;;;;;;;-5.62;49.87;99966.81;4882754;29;20048;-79
2022/01/11 00:41:03;;;;;;;5.63;2.60;;;;;;;-5.53;49.92;99965.03;4880909;29;20108;-78
2022/01/11 00:43:29;;;;;;;9.95;3.28;;;;;;;-5.50;49.31;99952.00;4881074;29;20563;-79
2022/01/11 00:45:56;;;;;;;6.72;3.22;;;;;;;-5.61;48.64;99960.72;4865346;29;20052;-79
2022/01/11 00:48:22;;;;;;;6.10;2.45;;;;;;;-5.58;48.85;99953.78;4867937;29;20044;-79
2022/01/11 00:50:48;;;;;;;5.43;3.00;;;;;;;-5.58;49.01;99945.97;4869032;29;20056;-80
2022/01/11 00:53:14;;;;;;;6.25;2.70;;;;;;;-5.53;48.64;99942.44;4868672;29;20144;-79
2022/01/11 00:55:41;;;;;;;4.95;3.05;;;;;;;-5.53;48.74;99938.97;4915760;29;20131;-79
2022/01/11 00:58:08;;;;;;;6.57;3.67;;;;;;;-5.53;49.00;99952.88;4884548;29;20048;-80
2022/01/11 01:00:35;;;;;;;4.05;2.35;;;;;;;-5.58;48.72;99953.78;4885791;29;20124;-79
2022/01/11 01:03:02;;;;;;;5.38;2.67;;;;;;;-5.64;48.69;99947.75;4872047;29;20044;-80
2022/01/11 01:05:28;;;;;;;5.38;2.92;;;;;;;-5.55;49.12;99948.56;4888018;29;20048;-79
2022/01/11 01:07:53;;;;;;;4.50;2.60;;;;;;;-5.57;49.27;99934.66;4885805;29;20041;-78
2022/01/11 01:10:26;;;;;;;5.28;3.03;;;;;;;-5.76;48.89;99932.16;4854748;29;20052;-79
2022/01/11 01:12:58;;;;;;;4.20;2.45;;;;;;;-5.70;48.88;99926.91;4901324;29;20057;-80
2022/01/11 01:15:26;;;;;;;6.05;3.00;;;;;;;-5.83;48.62;99930.44;4870201;29;20430;-80
2022/01/11 01:17:53;;;;;;;7.40;2.88;;;;;;;-5.78;48.59;99918.28;4886391;29;20052;-79
2022/01/11 01:20:19;;;;;;;13.25;6.28;;;;;;;-5.66;48.38;99927.78;4871113;29;20076;-80
2022/01/11 01:22:46;;;;;;;4.05;2.92;;;;;;;-5.62;48.02;99934.69;4869948;29;20040;-80
2022/01/11 01:25:12;;;;;;;4.38;2.55;;;;;;;-5.66;47.79;99927.78;4870044;29;20048;-80
2022/01/11 01:27:38;;;;;;;3.40;2.75;;;;;;;-5.57;47.79;99927.72;4885248;29;20388;-80
2022/01/11 01:30:05;;;;;;;6.78;3.13;;;;;;;-5.58;48.06;99926.00;4868098;29;20080;-79
2022/01/11 01:32:31;;;;;;;4.32;2.78;;;;;;;-5.61;48.24;99934.69;4899435;29;20512;-81
2022/01/11 01:35:02;;;;;;;4.10;3.03;;;;;;;-5.69;47.90;99936.47;4914917;29;20077;-80
2022/01/11 01:37:28;;;;;;;4.78;3.13;;;;;;;-5.68;48.33;99925.19;4899575;29;20127;-81
2022/01/11 01:39:54;;;;;;;6.38;2.78;;;;;;;-5.62;48.39;99930.34;4884331;29;20115;-81
2022/01/11 01:42:26;;;;;;;4.55;3.05;;;;;;;-5.62;48.34;99913.88;4886548;29;20123;-80
2022/01/11 01:44:52;;;;;;;6.60;3.58;;;;;;;-5.55;48.13;99914.69;4872550;29;20041;-81
2022/01/11 01:47:18;;;;;;;7.25;2.92;;;;;;;-5.70;48.33;99921.72;4906519;29;20068;-82
2022/01/11 01:49:44;;;;;;;6.15;3.45;;;;;;;-5.89;48.32;99914.88;4899326;29;20404;-81
2022/01/11 01:52:11;;;;;;;8.88;3.42;;;;;;;-5.92;49.00;99900.13;4918206;29;20064;-81
2022/01/11 01:54:37;;;;;;;4.63;2.97;;;;;;;-5.91;49.06;99901.84;4871996;29;20044;-79
2022/01/11 01:57:03;;;;;;;4.10;2.85;;;;;;;-5.91;49.37;99909.66;4883494;29;20044;-80
2022/01/11 01:59:29;;;;;;;4.35;2.45;;;;;;;-5.80;49.37;99904.41;4899850;29;20044;-80
2022/01/11 02:01:57;;;;;;;6.00;2.92;;;;;;;-5.69;48.62;99892.19;4889014;29;20104;-80
2022/01/11 02:04:22;;;;;;;6.07;3.00;;;;;;;-5.63;48.54;99894.78;4922877;29;20077;-80
2022/01/11 02:06:48;;;;;;;3.55;2.60;;;;;;;-5.57;48.34;99891.25;4883519;29;20052;-81
2022/01/11 02:09:17;;;;;;;4.03;2.45;;;;;;;-5.55;48.45;99891.25;4867491;29;20044;-80
2022/01/11 02:11:45;;;;;;;3.25;2.40;;;;;;;-5.54;48.04;99890.38;4883038;29;20048;-81
2022/01/11 02:14:11;;;;;;;3.47;2.70;;;;;;;-5.59;48.02;99881.75;4852337;29;20052;-79
2022/01/11 02:16:39;;;;;;;5.03;2.80;;;;;;;-5.56;48.27;99886.94;4898928;29;20048;-82
2022/01/11 02:19:05;;;;;;;3.40;2.70;;;;;;;-5.62;48.77;99877.41;4898280;29;20049;-82
2022/01/11 02:21:31;;;;;;;4.97;3.00;;;;;;;-5.53;48.88;99879.06;4882474;29;20055;-81
2022/01/11 02:23:59;;;;;;;5.43;2.70;;;;;;;-5.54;48.92;99885.16;4913791;29;20055;-79
2022/01/11 02:26:28;;;;;;;4.82;3.22;;;;;;;-5.58;48.66;99883.47;4897612;29;20044;-79
2022/01/11 02:28:54;;;;;;;7.50;3.95;;;;;;;-5.59;48.70;99892.16;4866912;29;20408;-80
2022/01/11 02:31:20;;;;;;;6.63;3.22;;;;;;;-5.57;49.20;99893.84;4913563;29;20504;-80
2022/01/11 02:33:52;;;;;;;6.03;3.42;;;;;;;-5.58;49.25;99897.34;4882451;29;20048;-80
2022/01/11 02:36:35;;;;;;;7.28;5.53;;;;;;;-5.58;49.72;99878.25;4897954;29;20048;-80
2022/01/11 02:39:28;;;;;;;6.50;4.20;;;;;;;-5.44;50.13;99889.44;4867480;29;20079;-80
2022/01/11 02:42:02;;;;;;;5.05;2.78;;;;;;;-5.39;49.72;99896.34;4897565;29;20060;-82
2022/01/11 02:44:45;;;;;;;5.00;2.70;;;;;;;-5.41;49.24;99877.28;4880260;29;20492;-83
2022/01/11 02:47:18;;;;;;;4.50;2.60;;;;;;;-5.52;49.17;99886.03;4883944;29;20448;-81
2022/01/11 02:49:45;;;;;;;4.88;2.67;;;;;;;-5.80;48.73;99893.97;4868539;29;20041;-82
2022/01/11 02:52:19;;;;;;;5.05;2.45;;;;;;;-5.86;49.62;99887.09;4898692;29;20055;-81
2022/01/11 02:54:52;;;;;;;6.05;2.70;;;;;;;-5.87;49.96;99890.56;4884060;29;20523;-81
2022/01/11 02:57:20;;;;;;;3.78;2.70;;;;;;;-5.83;49.52;99872.31;4883776;29;20049;-81
2022/01/11 02:59:48;;;;;;;5.80;2.80;;;;;;;-5.76;49.93;99885.28;4867614;29;20040;-81
2022/01/11 03:02:16;;;;;;;6.72;3.33;;;;;;;-5.69;50.19;99886.97;4882519;29;20449;-79
2022/01/11 03:04:44;;;;;;;5.35;2.78;;;;;;;-5.70;49.88;99864.44;4897823;29;20051;-81
2022/01/11 03:07:11;;;;;;;3.63;2.85;;;;;;;-5.52;49.56;99884.28;4898455;29;20051;-82
2022/01/11 03:09:59;;;;;;;6.80;3.15;;;;;;;-5.70;49.92;99880.06;4897848;29;20083;-82
2022/01/11 03:12:27;;;;;;;5.75;2.70;;;;;;;-5.83;49.81;99894.00;4881796;29;20462;-80
2022/01/11 03:14:54;;;;;;;6.35;3.00;;;;;;;-5.88;50.48;99885.34;4898169;29;20049;-82
2022/01/11 03:17:20;;;;;;;4.45;2.88;;;;;;;-5.76;50.17;99898.31;4866075;29;20519;-83
2022/01/11 03:19:46;;;;;;;6.72;2.85;;;;;;;-5.76;50.05;99885.28;4881621;29;20504;-81
2022/01/11 03:22:12;;;;;;;4.13;2.78;;;;;;;-5.71;50.53;99895.69;4881371;29;20477;-80
2022/01/11 03:24:39;;;;;;;4.13;2.85;;;;;;;-5.63;50.27;99894.78;4881481;29;20051;-80
2022/01/11 03:27:07;;;;;;;6.45;2.90;;;;;;;-5.71;50.52;99904.38;4881501;29;20052;-82
2022/01/11 03:29:34;;;;;;;3.15;2.45;;;;;;;-5.77;50.68;99891.38;4881563;29;20496;-82
2022/01/11 03:32:02;;;;;;;5.28;3.17;;;;;;;-5.73;51.09;99906.09;4881686;29;20086;-80
2022/01/11 03:34:29;;;;;;;4.47;2.90;;;;;;;-5.65;50.96;99904.31;4897204;29;20064;-81
2022/01/11 03:36:55;;;;;;;8.55;4.53;;;;;;;-5.73;51.41;99905.25;4867443;29;20048;-81
2022/01/11 03:39:21;;;;;;;5.97;2.95;;;;;;;-5.67;51.38;99910.44;4881110;29;20048;-81
2022/01/11 03:41:48;;;;;;;4.95;2.80;;;;;;;-5.56;51.22;99902.56;4897509;29;20521;-81
2022/01/11 03:44:15;;;;;;;5.32;2.90;;;;;;;-5.50;51.03;99902.50;4881491;29;20512;-81
2022/01/11 03:46:41;;;;;;;5.82;3.15;;;;;;;-5.46;51.34;99912.88;4903373;29;20044;-80
2022/01/11 03:49:07;;;;;;;5.25;2.92;;;;;;;-5.40;51.25;99914.59;4904604;29;20139;-80
2022/01/11 03:51:36;;;;;;;3.97;2.58;;;;;;;-5.42;51.24;99916.34;4890774;29;20076;-80
2022/01/11 03:54:13;;;;;;;4.28;2.88;;;;;;;-5.41;51.36;99905.94;4887905;29;20059;-80
2022/01/11 03:57:00;;;;;;;4.57;2.70;;;;;;;-5.31;51.67;99908.47;4865763;29;20072;-82
2022/01/11 03:59:31;;;;;;;4.40;2.70;;;;;;;-5.30;51.61;99903.25;4881376;29;20093;-81
2022/01/11 04:01:57;;;;;;;7.93;3.40;;;;;;;-5.23;51.11;99899.75;4896665;29;20052;-83
2022/01/11 04:04:23;;;;;;;7.38;4.35;;;;;;;-5.26;51.42;99899.75;4887525;29;20076;-81
2022/01/11 04:06:49;;;;;;;6.55;3.10;;;;;;;-5.38;52.13;99895.50;4899719;29;20059;-80
2022/01/11 04:09:15;;;;;;;10.85;3.65;;;;;;;-5.34;52.29;99901.56;4899606;29;20047;-80
2022/01/11 04:11:42;;;;;;;5.82;3.47;;;;;;;-5.52;52.91;99904.28;4899596;29;20045;-82
2022/01/11 04:14:08;;;;;;;5.57;4.10;;;;;;;-5.53;52.98;99899.91;4899556;29;20052;-81
2022/01/11 04:16:34;;;;;;;4.55;3.42;;;;;;;-5.62;53.65;99904.31;4899479;29;20071;-80
2022/01/11 04:19:02;;;;;;;6.13;3.78;;;;;;;-5.73;53.62;99913.91;4884150;29;20048;-82
2022/01/11 04:21:28;;;;;;;5.68;3.67;;;;;;;-5.83;54.31;99920.03;4899700;29;20401;-81
2022/01/11 04:23:56;;;;;;;6.30;4.30;;;;;;;-5.92;54.47;99914.91;4903105;29;20052;-80
2022/01/11 04:26:24;;;;;;;7.32;4.00;;;;;;;-5.86;54.52;99915.72;4887665;29;20047;-85
2022/01/11 04:28:51;;;;;;;5.07;3.60;;;;;;;-5.87;55.67;99918.31;4919247;29;20082;-78
2022/01/11 04:31:17;;;;;;;9.30;3.70;;;;;;;-5.83;56.69;99912.22;4935635;29;20099;-79
2022/01/11 04:33:44;;;;;;;5.97;3.45;;;;;;;-5.88;56.43;99912.25;4928513;29;20131;-79
2022/01/11 04:36:12;;;;;;;9.65;3.65;;;;;;;-5.82;56.56;99927.00;4870649;29;20468;-80
2022/01/11 04:38:38;;;;;;;4.35;3.20;;;;;;;-6.04;57.76;99920.16;4869695;29;20405;-81
2022/01/11 04:41:05;;;;;;;7.22;3.55;;;;;;;-6.01;56.97;99925.38;4905206;29;20083;-78
2022/01/11 04:43:39;;;;;;;24.67;4.88;;;;;;;-6.03;57.35;99916.69;4877360;29;20052;-78
2022/01/11 04:46:05;;;;;;;9.32;3.72;;;;;;;-5.91;58.05;99922.66;4886538;29;20492;-80
2022/01/11 04:48:32;;;;;;;8.38;3.30;;;;;;;-5.86;58.07;99917.47;4884585;29;20056;-79
2022/01/11 04:51:03;;;;;;;6.97;3.42;;;;;;;-5.99;58.80;99916.66;4904144;29;20052;-80
2022/01/11 04:53:30;;;;;;;5.97;3.13;;;;;;;-6.06;58.69;99906.28;4934188;29;20051;-77
2022/01/11 04:55:57;;;;;;;6.63;3.95;;;;;;;-5.92;58.64;99915.75;4871819;29;20051;-90
2022/01/11 04:58:23;;;;;;;7.15;3.97;;;;;;;-5.96;58.90;99908.84;4903404;29;20052;-86
2022/01/11 05:00:50;;;;;;;8.63;4.43;;;;;;;-5.88;60.33;99916.59;4903682;29;20088;-89
2022/01/11 05:03:18;;;;;;;7.63;4.20;;;;;;;-5.82;59.36;99911.38;4889160;29;20500;-84
2022/01/11 05:05:49;;;;;;;7.07;4.03;;;;;;;-5.86;59.62;99912.25;4903509;29;20416;-83
2022/01/11 05:08:15;;;;;;;7.18;3.85;;;;;;;-5.77;59.25;99914.81;4902403;29;20039;-81
2022/01/11 05:10:42;;;;;;;6.55;4.00;;;;;;;-5.79;59.75;99910.47;4918204;29;20407;-81
2022/01/11 05:13:13;;;;;;;6.03;4.20;;;;;;;-5.78;59.37;99912.22;4933750;29;20067;-83
2022/01/11 05:15:40;;;;;;;7.15;4.15;;;;;;;-5.93;59.62;99923.59;4902570;29;20397;-86
2022/01/11 05:18:09;;;;;;;28.35;6.13;;;;;;;-5.95;60.00;99920.13;4887309;29;20055;-82
2022/01/11 05:20:36;;;;;;;11.73;5.97;;;;;;;-5.85;60.44;99916.59;4895984;29;20044;-80
2022/01/11 05:23:02;;;;;;;8.13;3.22;;;;;;;-5.95;60.55;99905.38;4888006;29;20244;-80
2022/01/11 05:25:28;;;;;;;8.52;4.45;;;;;;;-5.89;60.40;99914.88;4874794;29;20036;-83
2022/01/11 05:27:54;;;;;;;7.20;3.58;;;;;;;-5.90;60.64;99918.34;4883701;29;20055;-80
2022/01/11 05:30:21;;;;;;;6.25;4.03;;;;;;;-5.80;60.41;99916.56;4899102;29;20052;-82
2022/01/11 05:32:48;;;;;;;6.85;3.60;;;;;;;-5.75;59.88;99899.19;4898572;29;20059;-78
2022/01/11 05:35:14;;;;;;;9.55;4.10;;;;;;;-5.68;60.22;99909.56;4882228;29;20053;-80
2022/01/11 05:37:41;;;;;;;6.97;4.50;;;;;;;-5.62;59.93;99908.66;4883286;29;20048;-80
2022/01/11 05:40:09;;;;;;;5.93;3.42;;;;;;;-5.68;60.35;99909.56;4883007;29;20044;-82
2022/01/11 05:42:35;;;;;;;6.20;3.75;;;;;;;-5.83;60.91;99916.56;4882897;29;20062;-83
2022/01/11 05:45:02;;;;;;;14.75;3.92;;;;;;;-5.86;60.91;99912.25;4883014;29;20527;-83
2022/01/11 05:47:29;;;;;;;9.85;4.22;;;;;;;-5.70;60.61;99907.84;4883218;29;20109;-82
2022/01/11 05:49:56;;;;;;;17.85;5.00;;;;;;;-5.61;60.39;99911.25;4898610;29;20510;-83
2022/01/11 05:52:22;;;;;;;5.13;3.58;;;;;;;-5.55;60.24;99893.88;4883190;29;20053;-81
2022/01/11 05:54:48;;;;;;;7.72;4.85;;;;;;;-5.48;59.94;99911.19;4898549;29;20052;-80
2022/01/11 05:57:14;;;;;;;6.93;4.35;;;;;;;-5.42;60.02;99926.75;4899690;29;20053;-81
2022/01/11 05:59:40;;;;;;;7.00;4.35;;;;;;;-5.37;60.11;99914.59;4867735;29;20059;-81
2022/01/11 06:02:06;;;;;;;8.90;4.63;;;;;;;-5.28;59.79;99893.66;4883077;29;20055;-81
2022/01/11 06:04:32;;;;;;;8.23;4.57;;;;;;;-5.13;59.46;99914.41;4898601;29;20500;-81
2022/01/11 06:06:59;;;;;;;8.10;4.70;;;;;;;-5.23;59.41;99897.13;4898570;29;20109;-83
2022/01/11 06:09:26;;;;;;;7.90;4.57;;;;;;;-5.19;59.49;99898.84;4868418;29;20044;-80
2022/01/11 06:11:53;;;;;;;7.70;4.45;;;;;;;-5.33;59.79;99907.63;4883763;29;20052;-82
2022/01/11 06:14:20;;;;;;;13.07;5.03;;;;;;;-5.34;60.13;99904.16;4883178;29;20051;-82
2022/01/11 06:16:46;;;;;;;8.82;4.65;;;;;;;-5.26;60.47;99911.91;4899232;29;20056;-84
2022/01/11 06:19:12;;;;;;;9.85;5.35;;;;;;;-5.32;60.12;99910.19;4882871;29;20060;-80
2022/01/11 06:22:10;;;;;;;9.30;4.82;;;;;;;-5.15;59.85;99905.75;4888734;29;20044;-82
2022/01/11 06:24:36;;;;;;;11.00;5.80;;;;;;;-4.94;59.33;99909.91;4882527;29;20048;-80
2022/01/11 06:27:03;;;;;;;12.02;6.38;;;;;;;-4.94;59.48;99888.19;4882675;29;20457;-81
2022/01/11 06:29:29;;;;;;;12.15;6.68;;;;;;;-4.85;58.75;99914.22;4851623;29;20107;-80
2022/01/11 06:31:55;;;;;;;9.70;5.90;;;;;;;-4.92;59.13;99904.72;4913737;29;20108;-81
2022/01/11 06:34:21;;;;;;;8.25;5.70;;;;;;;-4.94;59.60;99911.66;4882378;29;20048;-79
2022/01/11 06:36:51;;;;;;;13.27;7.03;;;;;;;-4.82;59.08;99911.56;4882159;29;20056;-81
2022/01/11 06:39:18;;;;;;;14.05;6.78;;;;;;;-4.67;59.01;99908.81;4899036;29;20097;-82
2022/01/11 06:41:45;;;;;;;9.88;6.55;;;;;;;-4.60;58.80;99904.41;4882119;29;20061;-82
2022/01/11 06:44:14;;;;;;;15.60;6.30;;;;;;;-4.44;58.61;99906.00;4881814;29;20044;-81
2022/01/11 06:46:42;;;;;;;14.07;6.65;;;;;;;-4.54;57.90;99898.28;4898018;29;20053;-79
2022/01/11 06:49:12;;;;;;;9.80;6.40;;;;;;;-4.42;57.82;99906.84;4897747;29;20420;-82
2022/01/11 06:51:38;;;;;;;12.45;6.22;;;;;;;-4.38;58.09;99899.84;4882294;29;20135;-82
2022/01/11 06:54:05;;;;;;;11.57;5.90;;;;;;;-4.24;57.36;99900.56;4898145;29;20044;-82
2022/01/11 06:56:32;;;;;;;9.38;5.95;;;;;;;-4.28;56.97;99884.94;4882590;29;20060;-81
2022/01/11 06:59:05;;;;;;;11.05;6.25;;;;;;;-4.44;57.24;99892.94;4896870;29;20052;-81
2022/01/11 07:01:32;;;;;;;10.43;5.57;;;;;;;-4.50;57.81;99894.75;4897673;29;20044;-80
2022/01/11 07:04:02;;;;;;;10.63;6.03;;;;;;;-4.56;57.97;99894.81;4897713;29;20056;-81
2022/01/11 07:06:31;;;;;;;12.20;6.20;;;;;;;-4.52;58.12;99886.06;4913151;29;20501;-80
2022/01/11 07:08:59;;;;;;;20.40;6.25;;;;;;;-4.50;57.92;99900.81;4866594;29;20056;-83
2022/01/11 07:11:30;;;;;;;10.20;5.20;;;;;;;-4.43;57.75;99901.63;4882507;29;20103;-82
2022/01/11 07:13:58;;;;;;;12.32;5.82;;;;;;;-4.43;57.28;99892.06;4881729;29;20052;-81
2022/01/11 07:16:24;;;;;;;10.60;5.38;;;;;;;-4.54;57.37;99887.84;4897037;29;20048;-81
2022/01/11 07:18:50;;;;;;;9.02;5.32;;;;;;;-4.88;58.13;99896.84;4897128;29;20107;-81
2022/01/11 07:21:17;;;;;;;7.95;5.15;;;;;;;-4.74;57.93;99888.91;4881821;29;20137;-80
2022/01/11 07:23:43;;;;;;;13.00;5.60;;;;;;;-4.51;57.81;99890.41;4896941;29;20533;-81
2022/01/11 07:26:10;;;;;;;12.00;6.28;;;;;;;-4.32;57.50;99899.78;4881660;29;20184;-79
2022/01/11 07:28:39;;;;;;;8.82;5.03;;;;;;;-4.42;57.57;99895.53;4913293;29;20138;-81
2022/01/11 07:31:10;;;;;;;9.57;4.38;;;;;;;-4.23;56.75;99896.19;4882327;29;20044;-79
2022/01/11 07:33:43;;;;;;;11.38;5.05;;;;;;;-4.21;55.92;99890.09;4882975;29;20048;-80
2022/01/11 07:36:09;;;;;;;12.05;5.07;;;;;;;-4.37;56.04;99880.69;4865830;29;20049;-81
2022/01/11 07:38:36;;;;;;;7.85;4.72;;;;;;;-4.19;56.06;99884.84;4883379;29;20104;-80
2022/01/11 07:41:07;;;;;;;10.30;4.97;;;;;;;-4.11;55.73;99884.75;4914465;29;20468;-82
2022/01/11 07:43:49;;;;;;;6.18;4.63;;;;;;;-3.99;55.24;99871.53;4906429;29;20060;-81
2022/01/11 07:46:31;;;;;;;7.05;4.25;;;;;;;-3.94;54.84;99885.41;4905963;29;20047;-81
2022/01/11 07:48:59;;;;;;;7.07;3.78;;;;;;;-3.94;54.93;99885.41;4901123;29;20040;-80
2022/01/11 07:51:26;;;;;;;8.95;4.85;;;;;;;-3.93;55.05;99876.69;4916274;29;20048;-81
2022/01/11 07:53:53;;;;;;;7.50;4.43;;;;;;;-3.80;55.95;99867.81;4901299;29;20056;-80
2022/01/11 07:56:20;;;;;;;9.98;4.68;;;;;;;-3.94;55.28;99872.34;4915239;29;20048;-82
2022/01/11 07:58:46;;;;;;;31.05;5.20;;;;;;;-3.91;55.14;99880.16;4897882;29;20501;-84
2022/01/11 08:01:16;;;;;;;10.45;4.53;;;;;;;-4.10;55.11;99865.56;4881363;29;20060;-82
2022/01/11 08:03:46;;;;;;;11.35;4.55;;;;;;;-4.02;55.33;99868.97;4912777;29;20049;-83
2022/01/11 08:06:26;;;;;;;8.48;4.13;;;;;;;-3.74;54.70;99862.50;4925001;29;20056;-80
2022/01/11 08:09:01;;;;;;;9.30;4.50;;;;;;;-3.64;53.85;99862.38;4895574;29;20096;-77
2022/01/11 08:11:27;;;;;;;14.52;4.20;;;;;;;-3.47;54.10;99865.59;4912102;29;20416;-78
2022/01/11 08:13:53;;;;;;;8.02;4.05;;;;;;;-3.52;53.54;99870.91;4896348;29;20058;-81
2022/01/11 08:16:20;;;;;;;7.03;4.43;;;;;;;-3.66;53.76;99865.84;4865608;29;20052;-83
2022/01/11 08:18:48;;;;;;;9.20;4.28;;;;;;;-3.57;53.25;99864.00;4908306;29;20129;-83
2022/01/11 08:21:14;;;;;;;19.55;4.68;;;;;;;-3.64;53.46;99860.63;4916971;29;20052;-79
2022/01/11 08:23:40;;;;;;;7.15;4.35;;;;;;;-3.80;53.92;99877.38;4870168;29;20385;-80
2022/01/11 08:26:07;;;;;;;8.35;4.70;;;;;;;-3.75;54.22;99859.91;4900610;29;20048;-79
2022/01/11 08:28:33;;;;;;;13.18;4.13;;;;;;;-3.65;53.80;99871.94;4884079;29;20067;-78
2022/01/11 08:31:02;;;;;;;8.68;4.68;;;;;;;-3.64;54.14;99884.16;4853380;29;20052;-82
2022/01/11 08:33:33;;;;;;;10.07;4.55;;;;;;;-3.66;53.80;99865.84;4869132;29;20052;-81
2022/01/11 08:36:00;;;;;;;8.93;4.20;;;;;;;-3.65;53.90;99871.94;4883966;29;20056;-80
2022/01/11 08:38:27;;;;;;;9.00;4.30;;;;;;;-3.70;53.47;99872.00;4868106;29;20052;-81
2022/01/11 08:40:55;;;;;;;10.02;4.05;;;;;;;-3.86;54.09;99867.03;4884030;29;20056;-81
2022/01/11 08:43:21;;;;;;;6.88;4.47;;;;;;;-3.79;54.29;99858.22;4867769;29;20103;-82
2022/01/11 08:45:47;;;;;;;8.70;3.90;;;;;;;-3.69;53.93;99871.13;4853067;29;20075;-84
2022/01/11 08:48:16;;;;;;;17.67;4.95;;;;;;;-3.72;54.16;99865.09;4914899;29;20044;-78
2022/01/11 08:50:53;;;;;;;8.40;3.65;;;;;;;-3.74;53.50;99852.03;4916137;29;20082;-83
2022/01/11 08:53:23;;;;;;;10.32;3.78;;;;;;;-3.90;53.45;99845.31;4886012;29;20547;-83
2022/01/11 08:55:50;;;;;;;9.07;4.35;;;;;;;-3.85;53.45;99861.78;4868586;29;20066;-82
2022/01/11 08:58:18;;;;;;;5.55;3.75;;;;;;;-3.85;54.31;99850.47;4867942;29;20052;-81
2022/01/11 09:00:44;;;;;;;6.40;4.28;;;;;;;-3.91;54.17;99848.81;4898186;29;20043;-81
2022/01/11 09:03:11;;;;;;;7.75;4.93;;;;;;;-3.92;54.35;99857.50;4882580;29;20417;-82
2022/01/11 09:05:42;;;;;;;6.10;3.67;;;;;;;-3.93;54.19;99861.03;4864547;29;20104;-82
2022/01/11 09:08:10;;;;;;;9.75;4.10;;;;;;;-4.04;54.64;99865.50;4894590;29;20040;-82
2022/01/11 09:10:36;;;;;;;8.68;3.95;;;;;;;-3.91;54.36;99857.50;4882617;29;20036;-82
2022/01/11 09:13:03;;;;;;;8.52;5.35;;;;;;;-3.88;54.45;99861.81;4898930;29;20148;-83
2022/01/11 09:15:29;;;;;;;8.80;3.88;;;;;;;-3.77;53.89;99857.31;4914776;29;20144;-83
2022/01/11 09:17:55;;;;;;;8.32;4.65;;;;;;;-3.71;53.72;99857.22;4902118;29;20523;-83
2022/01/11 09:20:22;;;;;;;10.45;4.97;;;;;;;-3.76;53.85;99864.28;4902062;29;20092;-85
2022/01/11 09:22:49;;;;;;;9.43;5.07;;;;;;;-3.84;54.53;99855.66;4902187;29;20397;-87
2022/01/11 09:25:15;;;;;;;7.47;4.45;;;;;;;-3.93;54.76;99850.56;4886865;29;20200;-83
2022/01/11 09:27:59;;;;;;;7.13;4.70;;;;;;;-3.68;54.39;99857.19;4919160;29;20044;-84
2022/01/11 09:30:26;;;;;;;8.15;5.00;;;;;;;-3.74;54.37;99852.03;4886776;29;20036;-85
2022/01/11 09:32:55;;;;;;;9.82;4.85;;;;;;;-3.89;54.64;99847.03;4917645;29;20049;-84
2022/01/11 09:35:24;;;;;;;13.05;4.85;;;;;;;-4.01;54.96;99841.97;4917701;29;20055;-82
2022/01/11 09:37:57;;;;;;;8.13;5.13;;;;;;;-4.08;55.29;99824.66;4885543;29;20050;-85
2022/01/11 09:40:23;;;;;;;8.38;5.15;;;;;;;-3.90;55.37;99832.25;4902437;29;20048;-87
2022/01/11 09:42:57;;;;;;;7.30;4.10;;;;;;;-3.83;54.61;99831.28;4872932;29;20199;-88
2022/01/11 09:45:28;;;;;;;11.75;5.50;;;;;;;-3.91;55.15;99827.94;4889365;29;20116;-86
2022/01/11 09:47:54;;;;;;;10.25;5.38;;;;;;;-3.86;54.79;99831.31;4887589;29;20051;-88
2022/01/11 09:50:21;;;;;;;10.35;5.45;;;;;;;-3.73;54.95;99832.00;4903024;29;20048;-88
2022/01/11 09:53:03;;;;;;;9.50;4.75;;;;;;;-3.74;54.62;99836.38;4906684;29;20056;-88
2022/01/11 09:55:32;;;;;;;8.75;5.38;;;;;;;-3.72;54.63;99837.22;4887716;29;20555;-87
2022/01/11 09:58:00;;;;;;;10.85;6.05;;;;;;;-3.59;54.57;99839.66;4902820;29;20096;-86
2022/01/11 10:00:44;;;;;;;12.40;5.50;;;;;;;-4.09;55.07;99825.56;4903023;29;20051;-84
2022/01/11 10:03:30;;;;;;;12.93;6.07;;;;;;;-4.01;55.20;99834.16;4908424;29;20056;-88
2022/01/11 10:06:14;;;;;;;11.80;5.85;;;;;;;-3.97;55.19;99828.00;4911981;29;20059;-87
2022/01/11 10:08:40;;;;;;;31.25;6.22;;;;;;;-4.03;55.43;99818.47;4913004;29;20048;-88
2022/01/11 10:11:07;;;;;;;9.25;5.50;;;;;;;-3.99;55.52;99834.97;4879246;29;20055;-87
2022/01/11 10:13:41;;;;;;;13.18;7.50;;;;;;;-4.13;55.88;99827.34;4870903;29;20051;-85
2022/01/11 10:16:21;;;;;;;10.82;5.93;;;;;;;-4.02;55.48;99819.38;4901751;29;20051;-85
2022/01/11 10:18:47;;;;;;;9.63;5.28;;;;;;;-3.91;55.41;99833.16;4901704;29;20406;-86
2022/01/11 10:21:41;;;;;;;9.60;4.75;;;;;;;-4.00;55.19;99835.88;4869991;29;20052;-85
2022/01/11 10:24:33;;;;;;;9.15;5.00;;;;;;;-3.91;55.23;99835.75;4886058;29;20143;-86
2022/01/11 10:27:05;;;;;;;13.43;6.07;;;;;;;-3.82;55.35;99837.38;4885934;29;20052;-85
2022/01/11 10:29:32;;;;;;;10.52;5.68;;;;;;;-3.88;55.05;99838.31;4886700;29;20079;-87
2022/01/11 10:32:15;;;;;;;8.15;4.50;;;;;;;-4.08;55.31;99824.66;4903959;29;20473;-86
2022/01/11 10:34:43;;;;;;;9.77;5.25;;;;;;;-3.98;54.98;99826.28;4889508;29;20134;-85
2022/01/11 10:37:10;;;;;;;8.55;5.28;;;;;;;-3.97;55.16;99822.78;4920266;29;20040;-85
2022/01/11 10:39:38;;;;;;;9.68;5.03;;;;;;;-4.19;55.59;99833.47;4870823;29;20511;-88
2022/01/11 10:42:25;;;;;;;12.23;5.40;;;;;;;-4.43;55.42;99839.88;4884904;29;20052;-85
2022/01/11 10:44:58;;;;;;;10.73;5.35;;;;;;;-4.41;55.81;99839.84;4872224;29;20096;-85
2022/01/11 10:47:31;;;;;;;12.27;6.15;;;;;;;-4.56;56.14;99860.88;4897227;29;20048;-86
2022/01/11 10:50:01;;;;;;;10.27;5.75;;;;;;;-4.54;56.57;99853.91;4882255;29;20389;-87
2022/01/11 10:52:31;;;;;;;9.95;5.55;;;;;;;-4.51;56.10;99853.91;4897382;29;20063;-89
2022/01/11 10:55:19;;;;;;;10.47;5.40;;;;;;;-4.52;56.31;99866.03;4914127;29;20055;-89
2022/01/11 10:58:00;;;;;;;9.75;5.43;;;;;;;-4.68;56.09;99864.50;4886142;29;20284;-88
2022/01/11 11:00:36;;;;;;;14.40;6.60;;;;;;;-4.83;56.21;99869.84;4900070;29;20048;-84
2022/01/11 11:03:09;;;;;;;9.27;5.80;;;;;;;-5.21;57.14;99869.31;4885859;29;20051;-85
2022/01/11 11:05:36;;;;;;;15.45;6.22;;;;;;;-5.22;57.19;99877.13;4871190;29;20135;-86
2022/01/11 11:08:44;;;;;;;13.90;6.10;;;;;;;-5.39;57.51;99877.25;4889274;29;20048;-86
2022/01/11 11:11:42;;;;;;;12.15;5.78;;;;;;;-5.76;58.37;99869.66;4876648;29;20056;-87
2022/01/11 11:14:11;;;;;;;14.57;6.15;;;;;;;-5.88;58.99;99873.19;4910166;29;20051;-85
2022/01/11 11:16:42;;;;;;;12.13;6.22;;;;;;;-5.74;58.62;99873.13;4943239;29;20048;-85
2022/01/11 11:19:11;;;;;;;13.85;6.13;;;;;;;-5.80;59.01;99862.75;4897419;29;20139;-85
2022/01/11 11:21:52;;;;;;;10.57;6.03;;;;;;;-6.06;59.38;99875.06;4896799;29;20044;-85
2022/01/11 11:24:18;;;;;;;13.82;6.25;;;;;;;-6.17;60.00;99878.59;4876742;29;20087;-85
2022/01/11 11:26:46;;;;;;;12.32;5.60;;;;;;;-6.07;59.96;99874.19;4892573;29;20055;-85
2022/01/11 11:29:13;;;;;;;11.05;5.47;;;;;;;-6.02;59.64;99882.84;4925517;29;20538;-86
2022/01/11 11:31:40;;;;;;;11.68;6.35;;;;;;;-6.02;59.69;99866.34;4909499;29;20055;-86
2022/01/11 11:34:08;;;;;;;12.20;6.28;;;;;;;-5.97;59.69;99869.81;4935013;29;20080;-86
2022/01/11 11:36:35;;;;;;;12.40;6.05;;;;;;;-5.88;59.63;99875.81;4906359;29;20052;-84
2022/01/11 11:39:11;;;;;;;12.15;6.07;;;;;;;-5.94;59.45;99872.38;4870902;29;20091;-86
2022/01/11 11:41:44;;;;;;;12.77;5.38;;;;;;;-5.96;59.61;99868.94;4855847;29;20063;-87
2022/01/11 11:44:14;;;;;;;10.55;5.50;;;;;;;-6.06;59.64;99849.03;4886524;29;20052;-84